Time;durP1;ratioP1;P1;durP2;ratioP2;P2;SDS_P1;SDS_P2;PMS_P1;PMS_P2;Temp;Humidity;BMP_temperature;BMP_pressure;BME280_temperature;BME280_humidity;BME280_pressure;Samples;Min_cycle;Max_cycle;Signal;HPM_P1;HPM_P2
2022/11/24 00:01:10;;;;;;;8.48;3.20;;;;;;;;;;5058146;28;20287;-78
2022/11/24 00:03:36;;;;;;;10.07;3.55;;;;;;;;;;5077432;28;20218;-78
2022/11/24 00:06:09;;;;;;;9.73;2.35;;;;;;;;;;5058747;28;20180;-78
2022/11/24 00:08:36;;;;;;;14.70;3.30;;;;;;;;;;5058802;28;20184;-78
2022/11/24 00:11:28;;;;;;;7.82;2.30;;;;;;;;;;5058106;28;20539;-78
2022/11/24 00:13:54;;;;;;;10.55;2.55;;;;;;;;;;5054794;28;20192;-78
2022/11/24 00:16:22;;;;;;;10.88;2.83;;;;;;;;;;5058299;28;20641;-78
2022/11/24 00:18:49;;;;;;;10.50;2.92;;;;;;;;;;5076126;28;20169;-78
2022/11/24 00:21:15;;;;;;;10.90;2.42;;;;;;;;;;5058476;28;20656;-78
2022/11/24 00:23:41;;;;;;;6.53;2.30;;;;;;;;;;5058191;28;20173;-78
2022/11/24 00:26:12;;;;;;;22.20;3.70;;;;;;;;;;5057772;28;20177;-79
2022/11/24 00:28:38;;;;;;;14.25;2.80;;;;;;;;;;5075152;28;20491;-78
2022/11/24 00:31:05;;;;;;;8.75;2.35;;;;;;;;;;5058631;28;20228;-78
2022/11/24 00:33:31;;;;;;;9.77;3.35;;;;;;;;;;5058038;28;20181;-78
2022/11/24 00:35:57;;;;;;;10.07;2.65;;;;;;;;;;5075710;28;20250;-78
2022/11/24 00:38:23;;;;;;;11.65;3.92;;;;;;;;;;5057906;28;20676;-78
2022/11/24 00:40:50;;;;;;;11.45;2.22;;;;;;;;;;5057419;28;20236;-78
2022/11/24 00:43:16;;;;;;;18.88;3.38;;;;;;;;;;5058242;28;20546;-78
2022/11/24 00:45:42;;;;;;;14.90;3.70;;;;;;;;;;5058429;28;20173;-78
2022/11/24 00:48:08;;;;;;;13.57;2.17;;;;;;;;;;5057692;28;20423;-78
2022/11/24 00:50:34;;;;;;;9.52;2.58;;;;;;;;;;5041776;28;20187;-78
2022/11/24 00:53:00;;;;;;;16.33;3.20;;;;;;;;;;5057160;28;20180;-79
2022/11/24 00:55:26;;;;;;;8.93;2.95;;;;;;;;;;5057425;28;20419;-78
2022/11/24 00:57:52;;;;;;;7.23;2.43;;;;;;;;;;5040408;28;20218;-78
2022/11/24 01:00:18;;;;;;;12.63;3.10;;;;;;;;;;5040887;28;20504;-77
2022/11/24 01:02:44;;;;;;;6.13;2.50;;;;;;;;;;5057052;28;20923;-80
2022/11/24 01:05:10;;;;;;;9.48;3.20;;;;;;;;;;5057704;28;20179;-78
2022/11/24 01:07:36;;;;;;;19.75;2.53;;;;;;;;;;5075786;28;20188;-77
2022/11/24 01:10:02;;;;;;;11.82;2.40;;;;;;;;;;5075224;28;20188;-78
2022/11/24 01:12:28;;;;;;;8.95;2.35;;;;;;;;;;5057115;28;20285;-78
2022/11/24 01:14:54;;;;;;;8.63;2.73;;;;;;;;;;5057217;28;20189;-78
2022/11/24 01:17:20;;;;;;;12.02;2.55;;;;;;;;;;5075083;28;20465;-78
2022/11/24 01:19:47;;;;;;;7.27;2.57;;;;;;;;;;5075168;28;20267;-80
2022/11/24 01:22:13;;;;;;;6.35;2.17;;;;;;;;;;5075122;28;20438;-78
2022/11/24 01:24:40;;;;;;;5.60;2.07;;;;;;;;;;5075064;28;20462;-78
2022/11/24 01:27:06;;;;;;;11.20;2.47;;;;;;;;;;5056939;28;20415;-78
2022/11/24 01:29:32;;;;;;;11.65;2.35;;;;;;;;;;5075020;28;20260;-78
2022/11/24 01:31:58;;;;;;;10.30;2.20;;;;;;;;;;5040163;28;20200;-78
2022/11/24 01:34:24;;;;;;;5.07;1.80;;;;;;;;;;5075162;28;20456;-78
2022/11/24 01:36:50;;;;;;;12.55;2.63;;;;;;;;;;5038793;28;20671;-78
2022/11/24 01:39:16;;;;;;;6.03;1.85;;;;;;;;;;5039757;28;20708;-77
2022/11/24 01:41:42;;;;;;;11.95;2.40;;;;;;;;;;5056186;28;20235;-80
2022/11/24 01:44:21;;;;;;;7.85;2.53;;;;;;;;;;5038888;28;20190;-80
2022/11/24 01:46:49;;;;;;;3.70;2.08;;;;;;;;;;5036186;28;20237;-80
2022/11/24 01:49:21;;;;;;;8.63;2.25;;;;;;;;;;5036141;28;20589;-79
2022/11/24 01:52:03;;;;;;;9.40;2.00;;;;;;;;;;5036409;28;20188;-79
2022/11/24 01:54:34;;;;;;;8.73;3.05;;;;;;;;;;5054074;28;20634;-80
2022/11/24 01:57:04;;;;;;;17.15;2.55;;;;;;;;;;5053170;28;20611;-79
2022/11/24 01:59:31;;;;;;;9.25;2.30;;;;;;;;;;5041391;28;20228;-79
2022/11/24 02:01:57;;;;;;;8.63;2.28;;;;;;;;;;5055818;28;20183;-79
2022/11/24 02:04:25;;;;;;;5.15;2.03;;;;;;;;;;5056145;28;20190;-79
2022/11/24 02:06:52;;;;;;;8.32;1.92;;;;;;;;;;5055850;28;20628;-80
2022/11/24 02:09:23;;;;;;;7.03;2.45;;;;;;;;;;5056312;28;20180;-79
2022/11/24 02:11:49;;;;;;;14.80;2.17;;;;;;;;;;5074077;28;20184;-79
2022/11/24 02:14:16;;;;;;;12.15;2.58;;;;;;;;;;5039409;28;20187;-79
2022/11/24 02:16:43;;;;;;;3.03;1.50;;;;;;;;;;5073623;28;20208;-79
2022/11/24 02:19:14;;;;;;;8.70;3.78;;;;;;;;;;5055822;28;20286;-79
2022/11/24 02:21:40;;;;;;;5.85;2.38;;;;;;;;;;5074051;28;20167;-80
2022/11/24 02:24:24;;;;;;;11.87;1.90;;;;;;;;;;5055512;28;20177;-79
2022/11/24 02:26:53;;;;;;;16.50;2.90;;;;;;;;;;5056166;28;20761;-81
2022/11/24 02:29:19;;;;;;;10.45;2.70;;;;;;;;;;5056347;28;20531;-79
2022/11/24 02:31:52;;;;;;;6.45;2.63;;;;;;;;;;5056109;28;20174;-78
2022/11/24 02:34:18;;;;;;;12.32;2.20;;;;;;;;;;5055689;28;20259;-78
2022/11/24 02:36:44;;;;;;;14.02;2.65;;;;;;;;;;5039411;28;20204;-78
2022/11/24 02:39:13;;;;;;;9.30;2.60;;;;;;;;;;5073368;28;20200;-79
2022/11/24 02:41:44;;;;;;;13.77;2.33;;;;;;;;;;5073216;28;20465;-79
2022/11/24 02:44:10;;;;;;;18.67;2.95;;;;;;;;;;5055383;28;20262;-79
2022/11/24 02:46:36;;;;;;;9.48;2.47;;;;;;;;;;5074086;28;20185;-79
2022/11/24 02:49:02;;;;;;;9.93;2.97;;;;;;;;;;5057188;28;20539;-78
2022/11/24 02:51:28;;;;;;;11.90;2.70;;;;;;;;;;5043167;28;20481;-78
2022/11/24 02:53:54;;;;;;;11.55;2.58;;;;;;;;;;5042825;28;20525;-78
2022/11/24 02:56:20;;;;;;;14.93;2.93;;;;;;;;;;5059959;28;20208;-78
2022/11/24 02:58:46;;;;;;;9.87;2.43;;;;;;;;;;5059028;28;20431;-78
2022/11/24 03:01:12;;;;;;;15.60;2.97;;;;;;;;;;5076858;28;20463;-78
2022/11/24 03:03:38;;;;;;;9.98;1.80;;;;;;;;;;5042694;28;20786;-78
2022/11/24 03:06:04;;;;;;;11.00;2.28;;;;;;;;;;5042189;28;20291;-78
2022/11/24 03:08:30;;;;;;;17.23;3.58;;;;;;;;;;5058769;28;20197;-78
2022/11/24 03:10:56;;;;;;;10.57;2.40;;;;;;;;;;5059043;28;20178;-79
2022/11/24 03:13:22;;;;;;;8.70;3.23;;;;;;;;;;5059260;28;20503;-79
2022/11/24 03:15:48;;;;;;;14.10;2.63;;;;;;;;;;5059095;28;20888;-79
2022/11/24 03:18:14;;;;;;;12.03;3.27;;;;;;;;;;5058814;28;20481;-78
2022/11/24 03:20:40;;;;;;;15.60;3.50;;;;;;;;;;5042348;28;20551;-78
2022/11/24 03:23:06;;;;;;;16.27;3.03;;;;;;;;;;5076930;28;20415;-78
2022/11/24 03:25:32;;;;;;;12.50;2.33;;;;;;;;;;5076796;28;20442;-79
2022/11/24 03:27:58;;;;;;;13.23;3.38;;;;;;;;;;5058534;28;20490;-78
2022/11/24 03:30:24;;;;;;;15.15;2.85;;;;;;;;;;5077152;28;20181;-78
2022/11/24 03:32:53;;;;;;;15.38;2.72;;;;;;;;;;5041842;28;20283;-78
2022/11/24 03:35:19;;;;;;;11.85;3.10;;;;;;;;;;5076863;28;20526;-78
2022/11/24 03:37:45;;;;;;;11.27;3.45;;;;;;;;;;5058664;28;20209;-79
2022/11/24 03:40:12;;;;;;;12.93;2.50;;;;;;;;;;5058409;28;20175;-78
2022/11/24 03:42:37;;;;;;;7.47;2.17;;;;;;;;;;5076541;28;20259;-78
2022/11/24 03:45:04;;;;;;;4.90;2.20;;;;;;;;;;5075899;28;20250;-78
2022/11/24 03:47:30;;;;;;;16.15;3.80;;;;;;;;;;5076790;28;20729;-78
2022/11/24 03:49:56;;;;;;;15.40;3.23;;;;;;;;;;5058354;28;20280;-80
2022/11/24 03:52:22;;;;;;;11.93;2.60;;;;;;;;;;5074534;28;20407;-80
2022/11/24 03:54:48;;;;;;;10.23;3.20;;;;;;;;;;5071079;28;21143;-79
2022/11/24 03:57:14;;;;;;;11.83;2.47;;;;;;;;;;5034749;28;20248;-79
2022/11/24 03:59:40;;;;;;;10.20;2.90;;;;;;;;;;5044210;28;20477;-78
2022/11/24 04:02:06;;;;;;;9.18;2.80;;;;;;;;;;5031365;28;20408;-78
2022/11/24 04:04:32;;;;;;;17.23;3.90;;;;;;;;;;5036245;28;20542;-78
2022/11/24 04:06:58;;;;;;;13.10;2.90;;;;;;;;;;5034669;28;20202;-78
2022/11/24 04:09:24;;;;;;;8.83;2.70;;;;;;;;;;5035150;28;20431;-78
2022/11/24 04:14:34;;;;;;;12.75;3.80;;;;;;;;;;5036200;28;20420;-78
2022/11/24 04:17:03;;;;;;;21.73;3.27;;;;;;;;;;5034921;28;20198;-78
2022/11/24 04:19:28;;;;;;;15.57;2.92;;;;;;;;;;5036347;28;20409;-78
2022/11/24 04:21:54;;;;;;;16.43;3.00;;;;;;;;;;5036813;28;20174;-78
2022/11/24 04:24:20;;;;;;;14.63;2.90;;;;;;;;;;5035192;28;20762;-78
2022/11/24 04:26:46;;;;;;;20.20;4.60;;;;;;;;;;5034916;28;20461;-78
2022/11/24 04:29:12;;;;;;;10.40;2.97;;;;;;;;;;5034795;28;20556;-78
2022/11/24 04:31:38;;;;;;;9.15;2.75;;;;;;;;;;5019231;28;20421;-79
2022/11/24 04:34:04;;;;;;;19.37;3.83;;;;;;;;;;5035817;28;20173;-78
2022/11/24 04:36:30;;;;;;;15.70;2.73;;;;;;;;;;5035460;28;20437;-78
2022/11/24 04:38:56;;;;;;;16.75;3.97;;;;;;;;;;5035301;28;20492;-78
2022/11/24 04:41:22;;;;;;;10.60;3.53;;;;;;;;;;5035551;28;20673;-78
2022/11/24 04:43:49;;;;;;;12.97;3.00;;;;;;;;;;5034385;28;20417;-78
2022/11/24 04:46:15;;;;;;;9.27;2.67;;;;;;;;;;5035657;28;20452;-78
2022/11/24 04:48:41;;;;;;;15.50;4.25;;;;;;;;;;5034569;28;20181;-78
2022/11/24 04:51:07;;;;;;;13.60;4.88;;;;;;;;;;5033978;28;20182;-78
2022/11/24 04:53:33;;;;;;;21.45;3.50;;;;;;;;;;5034527;28;20186;-78
2022/11/24 04:56:03;;;;;;;13.55;3.38;;;;;;;;;;5033956;28;20174;-80
2022/11/24 04:58:29;;;;;;;18.67;4.35;;;;;;;;;;5035178;28;20670;-79
2022/11/24 05:00:55;;;;;;;11.40;3.17;;;;;;;;;;5017603;28;20379;-78
2022/11/24 05:03:21;;;;;;;16.87;3.47;;;;;;;;;;5017243;28;20425;-78
2022/11/24 05:05:47;;;;;;;14.90;3.20;;;;;;;;;;5017831;28;20900;-77
2022/11/24 05:08:13;;;;;;;14.03;4.10;;;;;;;;;;5033674;28;20408;-78
2022/11/24 05:10:39;;;;;;;15.97;4.03;;;;;;;;;;5033811;28;20409;-77
2022/11/24 05:13:10;;;;;;;14.13;3.45;;;;;;;;;;5017350;28;20817;-77
2022/11/24 05:15:40;;;;;;;10.75;3.17;;;;;;;;;;5035291;28;20167;-77
2022/11/24 05:18:15;;;;;;;11.88;3.58;;;;;;;;;;5033461;28;20202;-77
2022/11/24 05:20:45;;;;;;;13.93;3.15;;;;;;;;;;5034648;28;20197;-78
2022/11/24 05:23:11;;;;;;;15.95;3.30;;;;;;;;;;5034852;28;20178;-77
2022/11/24 05:25:37;;;;;;;17.05;4.47;;;;;;;;;;5033802;28;20681;-78
2022/11/24 05:28:04;;;;;;;19.17;3.10;;;;;;;;;;5034348;28;20186;-79
2022/11/24 05:30:31;;;;;;;21.90;3.17;;;;;;;;;;5033277;28;20440;-79
2022/11/24 05:32:57;;;;;;;12.23;2.90;;;;;;;;;;5033758;28;20178;-79
2022/11/24 05:35:23;;;;;;;14.73;2.75;;;;;;;;;;5034486;28;20170;-79
2022/11/24 05:37:49;;;;;;;15.50;3.75;;;;;;;;;;5034911;28;20229;-79
2022/11/24 05:40:16;;;;;;;16.00;3.70;;;;;;;;;;5034327;28;20541;-79
2022/11/24 05:42:42;;;;;;;21.45;3.03;;;;;;;;;;5034239;28;20236;-78
2022/11/24 05:45:12;;;;;;;15.75;2.92;;;;;;;;;;5033571;28;20174;-79
2022/11/24 05:47:39;;;;;;;11.60;2.38;;;;;;;;;;5035409;28;20522;-78
2022/11/24 05:50:05;;;;;;;8.70;2.05;;;;;;;;;;5035024;28;20525;-78
2022/11/24 05:52:31;;;;;;;14.07;2.25;;;;;;;;;;5034720;28;20262;-78
2022/11/24 05:54:57;;;;;;;11.87;2.10;;;;;;;;;;5035104;28;20597;-78
2022/11/24 05:57:23;;;;;;;8.43;2.75;;;;;;;;;;5035152;28;20468;-79
2022/11/24 05:59:49;;;;;;;6.27;1.80;;;;;;;;;;5033897;28;20688;-78
2022/11/24 06:02:15;;;;;;;6.10;1.57;;;;;;;;;;5034111;28;20454;-78
2022/11/24 06:04:41;;;;;;;8.10;2.60;;;;;;;;;;5034766;28;20466;-79
2022/11/24 06:07:07;;;;;;;5.33;1.33;;;;;;;;;;5016811;28;20421;-79
2022/11/24 06:09:36;;;;;;;3.85;1.48;;;;;;;;;;5035558;28;20755;-79
2022/11/24 06:12:02;;;;;;;5.65;1.80;;;;;;;;;;5035423;28;20522;-79
2022/11/24 06:14:28;;;;;;;8.70;1.60;;;;;;;;;;5034725;28;20225;-78
2022/11/24 06:16:54;;;;;;;3.90;1.60;;;;;;;;;;5017536;28;20206;-78
2022/11/24 06:19:20;;;;;;;2.93;1.20;;;;;;;;;;5034932;28;20770;-79
2022/11/24 06:21:46;;;;;;;7.67;1.67;;;;;;;;;;5034225;28;20419;-78
2022/11/24 06:24:13;;;;;;;5.82;2.03;;;;;;;;;;5033936;28;20523;-78
2022/11/24 06:26:39;;;;;;;7.38;1.55;;;;;;;;;;5037357;28;20174;-78
2022/11/24 06:29:05;;;;;;;7.28;1.50;;;;;;;;;;5036789;28;20178;-81
2022/11/24 06:31:31;;;;;;;6.47;1.65;;;;;;;;;;5030304;28;20574;-77
2022/11/24 06:33:58;;;;;;;6.32;1.23;;;;;;;;;;5037278;28;20293;-78
2022/11/24 06:36:24;;;;;;;4.85;1.70;;;;;;;;;;5036512;28;20179;-78
2022/11/24 06:38:50;;;;;;;5.05;1.25;;;;;;;;;;5002512;28;20205;-79
2022/11/24 06:41:17;;;;;;;7.30;1.50;;;;;;;;;;5016479;28;20179;-78
2022/11/24 06:43:43;;;;;;;4.97;1.58;;;;;;;;;;5018728;28;20401;-78
2022/11/24 06:46:09;;;;;;;7.43;1.52;;;;;;;;;;5015039;28;20208;-78
2022/11/24 06:48:35;;;;;;;7.00;1.70;;;;;;;;;;5013191;28;20258;-78
2022/11/24 06:51:03;;;;;;;4.75;1.50;;;;;;;;;;5016261;28;20252;-78
2022/11/24 06:53:30;;;;;;;4.18;1.15;;;;;;;;;;5017721;28;20567;-78
2022/11/24 06:56:00;;;;;;;5.10;1.40;;;;;;;;;;5016637;28;20186;-78
2022/11/24 06:58:26;;;;;;;2.05;1.30;;;;;;;;;;5016376;28;20308;-77
2022/11/24 07:00:52;;;;;;;12.60;1.40;;;;;;;;;;5000278;28;20710;-77
2022/11/24 07:03:18;;;;;;;4.30;1.13;;;;;;;;;;5017435;28;20414;-77
2022/11/24 07:05:44;;;;;;;8.55;1.52;;;;;;;;;;5017756;28;20414;-77
2022/11/24 07:08:10;;;;;;;4.05;1.15;;;;;;;;;;5016025;28;20183;-78
2022/11/24 07:10:37;;;;;;;4.07;1.23;;;;;;;;;;5016446;28;20197;-78
2022/11/24 07:13:03;;;;;;;4.53;1.30;;;;;;;;;;5015862;28;20194;-77
2022/11/24 07:15:30;;;;;;;2.90;1.38;;;;;;;;;;5017098;28;20526;-77
2022/11/24 07:17:56;;;;;;;3.60;1.38;;;;;;;;;;5016539;28;20210;-77
2022/11/24 07:20:21;;;;;;;2.93;1.53;;;;;;;;;;4999601;28;20284;-79
2022/11/24 07:22:47;;;;;;;5.20;2.00;;;;;;;;;;5016187;28;20402;-78
2022/11/24 07:25:13;;;;;;;4.00;1.70;;;;;;;;;;5015720;28;20925;-77
2022/11/24 07:27:40;;;;;;;2.45;1.30;;;;;;;;;;5017165;28;20406;-79
2022/11/24 07:30:07;;;;;;;3.47;1.60;;;;;;;;;;5010288;28;20175;-79
2022/11/24 07:32:33;;;;;;;1.90;1.50;;;;;;;;;;4992816;28;20247;-77
2022/11/24 07:34:59;;;;;;;6.28;2.92;;;;;;;;;;4991649;28;20194;-79
2022/11/24 07:37:26;;;;;;;9.80;5.40;;;;;;;;;;5010445;28;20571;-77
2022/11/24 07:39:52;;;;;;;17.10;8.90;;;;;;;;;;5011203;28;20497;-77
2022/11/24 07:42:17;;;;;;;8.13;4.40;;;;;;;;;;5013241;28;20225;-77
2022/11/24 07:44:43;;;;;;;5.50;2.87;;;;;;;;;;5015597;28;20886;-77
2022/11/24 07:47:09;;;;;;;12.03;4.80;;;;;;;;;;4998980;28;20421;-80
2022/11/24 07:49:35;;;;;;;4.40;2.23;;;;;;;;;;5015888;28;20408;-77
2022/11/24 07:52:03;;;;;;;6.32;2.45;;;;;;;;;;5015432;28;20417;-77
2022/11/24 07:54:29;;;;;;;6.65;3.20;;;;;;;;;;5016569;28;20520;-77
2022/11/24 07:56:55;;;;;;;4.13;1.60;;;;;;;;;;4999106;28;20214;-77
2022/11/24 07:59:21;;;;;;;6.25;2.10;;;;;;;;;;5003106;28;20487;-77
2022/11/24 08:01:47;;;;;;;6.57;1.80;;;;;;;;;;5039141;28;20207;-77
2022/11/24 08:04:13;;;;;;;4.13;2.03;;;;;;;;;;5038640;28;20180;-77
2022/11/24 08:06:39;;;;;;;3.90;1.60;;;;;;;;;;5038689;28;20465;-77
2022/11/24 08:09:05;;;;;;;6.03;1.60;;;;;;;;;;5038428;28;20425;-77
2022/11/24 08:11:31;;;;;;;8.55;2.60;;;;;;;;;;5056699;28;20408;-77
2022/11/24 08:13:57;;;;;;;4.65;1.48;;;;;;;;;;5038998;28;20180;-77
2022/11/24 08:16:23;;;;;;;4.47;1.70;;;;;;;;;;5056298;28;20181;-77
2022/11/24 08:18:50;;;;;;;5.57;1.70;;;;;;;;;;5056073;28;20424;-77
2022/11/24 08:21:16;;;;;;;5.63;1.55;;;;;;;;;;5037863;28;20181;-76
2022/11/24 08:23:42;;;;;;;5.97;2.47;;;;;;;;;;5038077;28;20633;-77
2022/11/24 08:26:19;;;;;;;6.50;1.98;;;;;;;;;;5038278;28;20182;-77
2022/11/24 08:28:46;;;;;;;4.93;1.70;;;;;;;;;;5056403;28;20177;-77
2022/11/24 08:31:13;;;;;;;7.45;2.15;;;;;;;;;;5055622;28;20238;-80
2022/11/24 08:33:39;;;;;;;10.38;2.78;;;;;;;;;;5021584;28;20192;-77
2022/11/24 08:36:07;;;;;;;11.60;2.20;;;;;;;;;;5038240;28;20181;-76
2022/11/24 08:38:33;;;;;;;7.93;3.10;;;;;;;;;;5037650;28;20316;-77
2022/11/24 08:41:00;;;;;;;6.25;2.28;;;;;;;;;;5038019;28;20246;-77
2022/11/24 08:43:26;;;;;;;9.40;2.03;;;;;;;;;;5055557;28;20249;-77
2022/11/24 08:45:52;;;;;;;11.00;2.22;;;;;;;;;;5037549;28;20190;-77
2022/11/24 08:48:18;;;;;;;7.28;2.08;;;;;;;;;;5021260;28;20181;-77
2022/11/24 08:50:44;;;;;;;11.63;1.87;;;;;;;;;;5020940;28;20216;-77
2022/11/24 08:53:10;;;;;;;10.40;2.15;;;;;;;;;;5037467;28;20455;-77
2022/11/24 08:55:36;;;;;;;13.47;2.30;;;;;;;;;;5036807;28;20625;-77
2022/11/24 08:58:02;;;;;;;7.67;1.93;;;;;;;;;;5020647;28;20494;-81
2022/11/24 09:00:28;;;;;;;9.77;2.23;;;;;;;;;;5054833;28;20455;-80
2022/11/24 09:02:55;;;;;;;8.50;2.53;;;;;;;;;;5036812;28;20903;-80
2022/11/24 09:05:21;;;;;;;2.97;1.23;;;;;;;;;;5036571;28;20448;-80
2022/11/24 09:07:47;;;;;;;10.03;2.87;;;;;;;;;;5054424;28;20195;-80
2022/11/24 09:10:12;;;;;;;20.13;3.70;;;;;;;;;;5054665;28;20436;-80
2022/11/24 09:12:39;;;;;;;7.07;1.80;;;;;;;;;;5054579;28;20415;-81
2022/11/24 09:15:05;;;;;;;3.65;2.25;;;;;;;;;;5054597;28;20487;-81
2022/11/24 09:17:31;;;;;;;4.90;1.83;;;;;;;;;;5044361;28;20817;-81
2022/11/24 09:19:57;;;;;;;8.70;2.25;;;;;;;;;;5033257;28;20192;-80
2022/11/24 09:22:23;;;;;;;7.37;1.73;;;;;;;;;;5070318;28;20173;-79
2022/11/24 09:24:49;;;;;;;13.20;3.10;;;;;;;;;;5074242;28;20403;-81
2022/11/24 09:27:15;;;;;;;9.13;2.10;;;;;;;;;;5074238;28;20425;-83
2022/11/24 09:29:41;;;;;;;13.17;3.07;;;;;;;;;;5074138;28;20465;-81
2022/11/24 09:32:07;;;;;;;7.27;1.80;;;;;;;;;;5072201;28;20419;-82
2022/11/24 09:34:33;;;;;;;9.37;2.97;;;;;;;;;;5054439;28;20423;-82
2022/11/24 09:37:00;;;;;;;8.85;2.08;;;;;;;;;;5036414;28;20883;-81
2022/11/24 09:39:26;;;;;;;11.50;2.63;;;;;;;;;;5036118;28;20272;-82
2022/11/24 09:42:01;;;;;;;7.18;2.00;;;;;;;;;;5054134;28;20598;-82
2022/11/24 09:44:30;;;;;;;12.90;2.88;;;;;;;;;;5053556;28;20176;-82
2022/11/24 09:47:02;;;;;;;11.88;2.50;;;;;;;;;;5036167;28;20219;-82
2022/11/24 09:49:36;;;;;;;8.07;2.47;;;;;;;;;;5036008;28;20178;-82
2022/11/24 09:52:04;;;;;;;4.13;2.00;;;;;;;;;;5053947;28;20193;-82
2022/11/24 09:54:32;;;;;;;7.13;2.25;;;;;;;;;;5053978;28;20173;-82
2022/11/24 09:57:00;;;;;;;11.55;2.55;;;;;;;;;;5054149;28;20197;-81
2022/11/24 09:59:26;;;;;;;10.55;2.75;;;;;;;;;;5055870;28;20236;-81
2022/11/24 10:01:54;;;;;;;10.32;2.75;;;;;;;;;;5040305;28;20573;-81
2022/11/24 10:04:22;;;;;;;10.18;2.20;;;;;;;;;;5057715;28;20173;-82
2022/11/24 10:07:06;;;;;;;10.07;2.28;;;;;;;;;;5040104;28;20181;-82
2022/11/24 10:09:51;;;;;;;10.02;3.20;;;;;;;;;;5058208;28;20200;-82
2022/11/24 10:12:36;;;;;;;6.45;2.75;;;;;;;;;;5040563;28;20178;-82
2022/11/24 10:15:02;;;;;;;17.95;2.97;;;;;;;;;;5068759;28;20181;-83
2022/11/24 10:17:31;;;;;;;15.77;3.08;;;;;;;;;;5057314;28;20235;-82
2022/11/24 10:20:17;;;;;;;9.60;2.35;;;;;;;;;;5039532;28;20492;-82
2022/11/24 10:22:46;;;;;;;9.07;1.70;;;;;;;;;;5059550;28;20242;-81
2022/11/24 10:25:18;;;;;;;9.55;2.20;;;;;;;;;;5039730;28;20359;-82
2022/11/24 10:27:49;;;;;;;7.03;1.90;;;;;;;;;;5057538;28;20219;-82
2022/11/24 10:30:20;;;;;;;8.57;3.67;;;;;;;;;;5056646;28;20186;-81
2022/11/24 10:32:52;;;;;;;7.93;2.70;;;;;;;;;;5054608;28;20524;-81
2022/11/24 10:35:21;;;;;;;6.38;2.13;;;;;;;;;;5068867;28;20173;-81
2022/11/24 10:37:53;;;;;;;5.07;2.20;;;;;;;;;;5071092;28;20207;-81
2022/11/24 10:40:32;;;;;;;11.82;3.40;;;;;;;;;;5076687;28;20172;-82
2022/11/24 10:42:58;;;;;;;9.70;2.30;;;;;;;;;;5076566;28;20157;-83
2022/11/24 10:45:26;;;;;;;6.45;1.80;;;;;;;;;;5058509;28;20520;-84
2022/11/24 10:47:51;;;;;;;10.82;2.47;;;;;;;;;;5076500;28;20210;-82
2022/11/24 10:50:22;;;;;;;13.07;2.10;;;;;;;;;;5042340;28;20180;-82
2022/11/24 10:52:51;;;;;;;5.70;2.28;;;;;;;;;;5058672;28;20414;-83
2022/11/24 10:55:17;;;;;;;10.05;2.70;;;;;;;;;;5076263;28;20197;-82
2022/11/24 10:57:44;;;;;;;7.90;2.45;;;;;;;;;;5075983;28;20254;-86
2022/11/24 11:00:18;;;;;;;8.30;2.40;;;;;;;;;;5076486;28;20274;-82
2022/11/24 11:02:45;;;;;;;9.77;2.38;;;;;;;;;;5076481;28;20579;-82
2022/11/24 11:05:40;;;;;;;6.70;2.15;;;;;;;;;;5076483;28;20230;-82
2022/11/24 11:08:15;;;;;;;6.15;2.03;;;;;;;;;;5076808;28;20256;-82
2022/11/24 11:10:42;;;;;;;14.90;2.50;;;;;;;;;;5075746;28;20211;-82
2022/11/24 11:13:22;;;;;;;8.43;2.40;;;;;;;;;;5076595;28;20230;-82
2022/11/24 11:15:48;;;;;;;5.60;2.27;;;;;;;;;;5076355;28;20168;-82
2022/11/24 11:18:16;;;;;;;9.50;2.67;;;;;;;;;;5076332;28;20900;-82
2022/11/24 11:20:49;;;;;;;9.97;2.30;;;;;;;;;;5077371;28;20176;-82
2022/11/24 11:23:25;;;;;;;7.32;2.42;;;;;;;;;;5059163;28;20408;-82
2022/11/24 11:25:51;;;;;;;10.80;2.15;;;;;;;;;;5076824;28;20172;-82
2022/11/24 11:28:17;;;;;;;10.80;2.40;;;;;;;;;;5076420;28;20181;-82
2022/11/24 11:31:00;;;;;;;8.10;2.00;;;;;;;;;;5076446;28;20403;-83
2022/11/24 11:33:27;;;;;;;8.98;2.40;;;;;;;;;;5076611;28;20387;-83
2022/11/24 11:35:54;;;;;;;19.35;2.63;;;;;;;;;;5058690;28;20180;-82
2022/11/24 11:38:20;;;;;;;11.52;1.80;;;;;;;;;;5076398;28;20205;-82
2022/11/24 11:40:48;;;;;;;9.23;2.10;;;;;;;;;;5076297;28;20181;-82
2022/11/24 11:43:30;;;;;;;13.83;3.13;;;;;;;;;;5076469;28;20172;-82
2022/11/24 11:46:00;;;;;;;9.93;1.90;;;;;;;;;;5076103;28;20395;-82
2022/11/24 11:48:29;;;;;;;12.30;2.25;;;;;;;;;;5076352;28;20424;-82
2022/11/24 11:51:01;;;;;;;10.40;1.90;;;;;;;;;;5058544;28;20329;-82
2022/11/24 11:53:30;;;;;;;9.77;2.37;;;;;;;;;;5058113;28;20477;-83
2022/11/24 11:56:09;;;;;;;11.90;2.57;;;;;;;;;;5058201;28;20417;-82
2022/11/24 11:58:35;;;;;;;13.53;2.73;;;;;;;;;;5058225;28;20501;-83
2022/11/24 12:01:19;;;;;;;8.03;2.40;;;;;;;;;;5058113;28;20471;-82
2022/11/24 12:03:45;;;;;;;10.97;2.77;;;;;;;;;;5057848;28;20772;-82
2022/11/24 12:06:14;;;;;;;7.73;2.33;;;;;;;;;;5057971;28;20418;-82
2022/11/24 12:08:49;;;;;;;8.80;2.30;;;;;;;;;;5075696;28;20415;-82
2022/11/24 12:11:24;;;;;;;15.70;3.10;;;;;;;;;;5058073;28;20411;-82
2022/11/24 12:13:53;;;;;;;10.87;2.30;;;;;;;;;;5075406;28;20491;-82
2022/11/24 12:16:23;;;;;;;8.60;2.50;;;;;;;;;;5057855;28;20419;-82
2022/11/24 12:18:57;;;;;;;12.30;2.77;;;;;;;;;;5057363;28;20463;-82
2022/11/24 12:21:48;;;;;;;5.00;1.70;;;;;;;;;;5075234;28;20476;-82
2022/11/24 12:24:36;;;;;;;10.77;2.30;;;;;;;;;;5075752;28;20445;-82
2022/11/24 12:27:11;;;;;;;14.80;3.00;;;;;;;;;;5060961;28;20419;-82
2022/11/24 12:29:45;;;;;;;11.20;3.17;;;;;;;;;;5075440;28;20776;-82
2022/11/24 12:32:29;;;;;;;7.43;2.10;;;;;;;;;;5075618;28;20218;-82
2022/11/24 12:35:00;;;;;;;8.73;2.00;;;;;;;;;;5057190;28;20410;-82
2022/11/24 12:37:32;;;;;;;11.47;2.60;;;;;;;;;;5057017;28;20970;-83
2022/11/24 12:40:13;;;;;;;4.93;1.87;;;;;;;;;;5075291;28;20747;-82
2022/11/24 12:42:54;;;;;;;11.50;2.90;;;;;;;;;;5075162;28;20398;-82
2022/11/24 12:45:38;;;;;;;7.40;2.17;;;;;;;;;;5074851;28;20819;-82
2022/11/24 12:48:07;;;;;;;11.70;3.03;;;;;;;;;;5057027;28;20460;-82
2022/11/24 12:50:38;;;;;;;7.80;2.20;;;;;;;;;;5056654;28;20552;-82
2022/11/24 12:53:07;;;;;;;9.47;2.90;;;;;;;;;;5075379;28;20406;-82
2022/11/24 12:55:34;;;;;;;13.23;2.75;;;;;;;;;;5056939;28;20423;-82
2022/11/24 12:58:18;;;;;;;13.33;3.40;;;;;;;;;;5075449;28;20205;-83
2022/11/24 13:00:52;;;;;;;9.83;2.60;;;;;;;;;;5075182;28;20455;-82
2022/11/24 13:03:21;;;;;;;8.50;1.90;;;;;;;;;;5075897;28;20394;-84
2022/11/24 13:05:57;;;;;;;14.43;1.90;;;;;;;;;;5072558;28;20723;-83
2022/11/24 13:08:23;;;;;;;9.57;2.10;;;;;;;;;;5074657;28;20399;-83
2022/11/24 13:10:50;;;;;;;6.67;2.57;;;;;;;;;;5074742;28;20408;-83
2022/11/24 13:13:16;;;;;;;6.10;1.97;;;;;;;;;;5075269;28;20778;-83
2022/11/24 13:15:54;;;;;;;5.83;1.87;;;;;;;;;;5057323;28;20804;-81
2022/11/24 13:18:39;;;;;;;8.37;2.00;;;;;;;;;;5056967;28;20465;-81
2022/11/24 13:21:24;;;;;;;9.00;2.13;;;;;;;;;;5056939;28;20386;-83
2022/11/24 13:23:57;;;;;;;10.87;2.43;;;;;;;;;;5074140;28;20407;-80
2022/11/24 13:26:38;;;;;;;10.40;2.93;;;;;;;;;;5074930;28;20441;-83
2022/11/24 13:29:05;;;;;;;7.97;2.30;;;;;;;;;;5075310;28;20456;-82
2022/11/24 13:31:31;;;;;;;12.00;2.70;;;;;;;;;;5074409;28;20410;-85
2022/11/24 13:33:57;;;;;;;8.83;2.30;;;;;;;;;;5074915;28;20777;-83
2022/11/24 13:36:23;;;;;;;5.57;1.70;;;;;;;;;;5056399;28;20958;-83
2022/11/24 13:38:49;;;;;;;10.47;2.63;;;;;;;;;;5056578;28;20554;-82
2022/11/24 13:41:33;;;;;;;6.97;2.20;;;;;;;;;;5054512;28;20432;-83
2022/11/24 13:44:15;;;;;;;9.70;2.00;;;;;;;;;;5057027;28;20518;-83
2022/11/24 13:47:00;;;;;;;9.23;2.03;;;;;;;;;;5073901;28;20410;-83
2022/11/24 13:49:49;;;;;;;7.40;2.57;;;;;;;;;;5074305;28;20797;-82
2022/11/24 13:52:44;;;;;;;9.10;2.67;;;;;;;;;;5075009;28;20871;-82
2022/11/24 13:55:10;;;;;;;6.67;2.17;;;;;;;;;;5057663;28;20754;-81
2022/11/24 13:57:40;;;;;;;5.40;2.10;;;;;;;;;;5073871;28;20458;-82
2022/11/24 14:00:25;;;;;;;7.23;2.40;;;;;;;;;;5074150;28;20819;-81
2022/11/24 14:02:52;;;;;;;11.23;2.67;;;;;;;;;;5055725;28;20416;-79
2022/11/24 14:05:21;;;;;;;8.30;1.80;;;;;;;;;;5074726;28;20469;-80
2022/11/24 14:07:48;;;;;;;9.80;2.90;;;;;;;;;;5074147;28;20907;-79
2022/11/24 14:10:19;;;;;;;9.00;3.17;;;;;;;;;;5073654;28;20751;-79
2022/11/24 14:12:45;;;;;;;18.87;2.50;;;;;;;;;;5073253;28;20415;-81
2022/11/24 14:15:23;;;;;;;10.23;2.57;;;;;;;;;;5055673;28;20407;-79
2022/11/24 14:17:49;;;;;;;8.57;2.13;;;;;;;;;;5073121;28;21125;-81
2022/11/24 14:20:16;;;;;;;9.00;2.27;;;;;;;;;;5055467;28;20427;-80
2022/11/24 14:22:42;;;;;;;11.83;2.20;;;;;;;;;;5055226;28;20970;-81
2022/11/24 14:25:26;;;;;;;8.70;2.20;;;;;;;;;;5055358;28;20431;-83
2022/11/24 14:27:52;;;;;;;13.70;2.33;;;;;;;;;;5073675;28;20490;-84
2022/11/24 14:30:20;;;;;;;11.00;2.53;;;;;;;;;;5072834;28;20445;-84
2022/11/24 14:33:14;;;;;;;12.13;2.50;;;;;;;;;;5055365;28;20438;-82
2022/11/24 14:35:45;;;;;;;9.57;2.60;;;;;;;;;;5051126;28;20418;-84
2022/11/24 14:38:11;;;;;;;9.43;2.90;;;;;;;;;;5055222;28;20970;-84
2022/11/24 14:40:38;;;;;;;5.30;2.30;;;;;;;;;;5055311;28;20407;-84
2022/11/24 14:43:23;;;;;;;15.67;3.10;;;;;;;;;;5055085;28;20504;-84
2022/11/24 14:45:57;;;;;;;13.23;3.57;;;;;;;;;;5075543;28;20967;-84
2022/11/24 14:48:27;;;;;;;9.20;3.00;;;;;;;;;;5076463;28;20407;-84